sensor_id;sensor_type;location;lat;lon;timestamp;P1;durP1;ratioP1;P2;durP2;ratioP2
78672;SDS011;67988;60.086;30.354;2023-08-08T00:02:19;8.95;;;3.90;;
78672;SDS011;67988;60.086;30.354;2023-08-08T00:04:46;6.32;;;3.92;;
78672;SDS011;67988;60.086;30.354;2023-08-08T00:07:13;5.65;;;3.85;;
78672;SDS011;67988;60.086;30.354;2023-08-08T00:09:41;7.00;;;3.70;;
78672;SDS011;67988;60.086;30.354;2023-08-08T00:12:08;5.78;;;4.10;;
78672;SDS011;67988;60.086;30.354;2023-08-08T00:14:36;10.73;;;5.13;;
78672;SDS011;67988;60.086;30.354;2023-08-08T00:17:03;4.65;;;4.07;;
78672;SDS011;67988;60.086;30.354;2023-08-08T00:19:30;5.82;;;4.30;;
78672;SDS011;67988;60.086;30.354;2023-08-08T00:21:57;4.68;;;4.25;;
78672;SDS011;67988;60.086;30.354;2023-08-08T00:24:24;7.82;;;4.13;;
78672;SDS011;67988;60.086;30.354;2023-08-08T00:26:53;5.53;;;3.90;;
78672;SDS011;67988;60.086;30.354;2023-08-08T00:29:20;7.85;;;5.18;;
78672;SDS011;67988;60.086;30.354;2023-08-08T00:31:47;4.32;;;3.90;;
78672;SDS011;67988;60.086;30.354;2023-08-08T00:34:14;7.47;;;5.10;;
78672;SDS011;67988;60.086;30.354;2023-08-08T00:36:42;6.57;;;4.55;;
78672;SDS011;67988;60.086;30.354;2023-08-08T00:39:10;4.85;;;4.22;;
78672;SDS011;67988;60.086;30.354;2023-08-08T00:41:37;6.32;;;4.00;;
78672;SDS011;67988;60.086;30.354;2023-08-08T00:44:06;8.43;;;3.75;;
78672;SDS011;67988;60.086;30.354;2023-08-08T00:46:33;4.32;;;3.92;;
78672;SDS011;67988;60.086;30.354;2023-08-08T00:51:27;4.57;;;4.18;;
78672;SDS011;67988;60.086;30.354;2023-08-08T00:53:55;9.73;;;4.15;;
78672;SDS011;67988;60.086;30.354;2023-08-08T00:56:23;6.68;;;3.95;;
78672;SDS011;67988;60.086;30.354;2023-08-08T00:58:51;5.68;;;3.60;;
78672;SDS011;67988;60.086;30.354;2023-08-08T01:01:20;6.25;;;2.97;;
78672;SDS011;67988;60.086;30.354;2023-08-08T01:03:47;5.75;;;3.65;;
78672;SDS011;67988;60.086;30.354;2023-08-08T01:06:16;5.97;;;4.03;;
78672;SDS011;67988;60.086;30.354;2023-08-08T01:08:53;7.20;;;3.50;;
78672;SDS011;67988;60.086;30.354;2023-08-08T01:11:24;4.15;;;3.75;;
78672;SDS011;67988;60.086;30.354;2023-08-08T01:13:54;6.93;;;3.45;;
78672;SDS011;67988;60.086;30.354;2023-08-08T01:16:23;4.25;;;3.63;;
78672;SDS011;67988;60.086;30.354;2023-08-08T01:18:52;7.63;;;4.05;;
78672;SDS011;67988;60.086;30.354;2023-08-08T01:21:20;5.38;;;3.70;;
78672;SDS011;67988;60.086;30.354;2023-08-08T01:23:50;6.35;;;3.25;;
78672;SDS011;67988;60.086;30.354;2023-08-08T01:26:21;8.90;;;3.72;;
78672;SDS011;67988;60.086;30.354;2023-08-08T01:28:52;6.35;;;3.83;;
78672;SDS011;67988;60.086;30.354;2023-08-08T01:31:19;6.05;;;3.53;;
78672;SDS011;67988;60.086;30.354;2023-08-08T01:33:46;9.13;;;4.10;;
78672;SDS011;67988;60.086;30.354;2023-08-08T01:38:46;5.13;;;3.22;;
78672;SDS011;67988;60.086;30.354;2023-08-08T01:41:15;5.03;;;3.70;;
78672;SDS011;67988;60.086;30.354;2023-08-08T01:43:45;4.82;;;3.45;;
78672;SDS011;67988;60.086;30.354;2023-08-08T01:46:13;7.18;;;3.83;;
78672;SDS011;67988;60.086;30.354;2023-08-08T01:48:44;5.30;;;3.85;;
78672;SDS011;67988;60.086;30.354;2023-08-08T01:51:11;7.35;;;3.53;;
78672;SDS011;67988;60.086;30.354;2023-08-08T01:53:38;4.55;;;2.85;;
78672;SDS011;67988;60.086;30.354;2023-08-08T01:56:07;6.90;;;3.50;;
78672;SDS011;67988;60.086;30.354;2023-08-08T01:58:35;7.07;;;3.28;;
78672;SDS011;67988;60.086;30.354;2023-08-08T02:01:04;7.55;;;2.83;;
78672;SDS011;67988;60.086;30.354;2023-08-08T02:03:31;3.55;;;2.90;;
78672;SDS011;67988;60.086;30.354;2023-08-08T02:05:58;11.15;;;3.50;;
78672;SDS011;67988;60.086;30.354;2023-08-08T02:08:25;7.25;;;3.67;;
78672;SDS011;67988;60.086;30.354;2023-08-08T02:10:52;5.43;;;3.42;;
78672;SDS011;67988;60.086;30.354;2023-08-08T02:13:19;5.85;;;3.88;;
78672;SDS011;67988;60.086;30.354;2023-08-08T02:15:47;8.32;;;3.70;;
78672;SDS011;67988;60.086;30.354;2023-08-08T02:18:15;6.25;;;3.75;;
78672;SDS011;67988;60.086;30.354;2023-08-08T02:20:43;5.78;;;3.25;;
78672;SDS011;67988;60.086;30.354;2023-08-08T02:23:10;7.90;;;4.13;;
78672;SDS011;67988;60.086;30.354;2023-08-08T02:25:37;5.80;;;3.50;;
78672;SDS011;67988;60.086;30.354;2023-08-08T02:28:04;5.20;;;3.92;;
78672;SDS011;67988;60.086;30.354;2023-08-08T02:30:32;4.30;;;3.42;;
78672;SDS011;67988;60.086;30.354;2023-08-08T02:32:59;4.05;;;3.45;;
78672;SDS011;67988;60.086;30.354;2023-08-08T02:35:28;3.67;;;3.25;;
78672;SDS011;67988;60.086;30.354;2023-08-08T02:37:55;4.07;;;3.67;;
78672;SDS011;67988;60.086;30.354;2023-08-08T02:40:22;6.45;;;2.92;;
78672;SDS011;67988;60.086;30.354;2023-08-08T02:42:50;6.95;;;3.88;;
78672;SDS011;67988;60.086;30.354;2023-08-08T02:45:17;3.25;;;2.80;;
78672;SDS011;67988;60.086;30.354;2023-08-08T02:47:44;5.68;;;3.60;;
78672;SDS011;67988;60.086;30.354;2023-08-08T02:50:11;4.88;;;3.08;;
78672;SDS011;67988;60.086;30.354;2023-08-08T02:52:40;9.93;;;3.65;;
78672;SDS011;67988;60.086;30.354;2023-08-08T02:55:08;4.18;;;3.78;;
78672;SDS011;67988;60.086;30.354;2023-08-08T02:57:36;3.42;;;2.78;;
78672;SDS011;67988;60.086;30.354;2023-08-08T03:00:04;4.53;;;3.47;;
78672;SDS011;67988;60.086;30.354;2023-08-08T03:02:38;4.05;;;3.03;;
78672;SDS011;67988;60.086;30.354;2023-08-08T03:05:05;6.88;;;3.90;;
78672;SDS011;67988;60.086;30.354;2023-08-08T03:07:33;4.05;;;3.60;;
78672;SDS011;67988;60.086;30.354;2023-08-08T03:10:02;3.97;;;3.50;;
78672;SDS011;67988;60.086;30.354;2023-08-08T03:12:31;5.20;;;3.10;;
78672;SDS011;67988;60.086;30.354;2023-08-08T03:14:59;5.25;;;3.35;;
78672;SDS011;67988;60.086;30.354;2023-08-08T03:17:27;6.38;;;3.95;;
78672;SDS011;67988;60.086;30.354;2023-08-08T03:19:55;9.07;;;3.72;;
78672;SDS011;67988;60.086;30.354;2023-08-08T03:22:22;5.95;;;5.22;;
78672;SDS011;67988;60.086;30.354;2023-08-08T03:27:18;4.55;;;3.50;;
78672;SDS011;67988;60.086;30.354;2023-08-08T03:29:49;9.38;;;3.05;;
78672;SDS011;67988;60.086;30.354;2023-08-08T03:32:17;5.60;;;3.67;;
78672;SDS011;67988;60.086;30.354;2023-08-08T03:34:44;6.30;;;3.50;;
78672;SDS011;67988;60.086;30.354;2023-08-08T03:37:13;11.15;;;3.30;;
78672;SDS011;67988;60.086;30.354;2023-08-08T03:39:41;5.55;;;3.40;;
78672;SDS011;67988;60.086;30.354;2023-08-08T03:42:09;3.70;;;3.35;;
78672;SDS011;67988;60.086;30.354;2023-08-08T03:44:38;7.15;;;3.50;;
78672;SDS011;67988;60.086;30.354;2023-08-08T03:47:05;9.43;;;3.25;;
78672;SDS011;67988;60.086;30.354;2023-08-08T03:49:32;5.95;;;3.70;;
78672;SDS011;67988;60.086;30.354;2023-08-08T03:52:00;11.88;;;4.70;;
78672;SDS011;67988;60.086;30.354;2023-08-08T03:54:27;4.28;;;3.88;;
78672;SDS011;67988;60.086;30.354;2023-08-08T03:59:21;7.03;;;3.65;;
78672;SDS011;67988;60.086;30.354;2023-08-08T04:01:50;6.97;;;3.35;;
78672;SDS011;67988;60.086;30.354;2023-08-08T04:04:17;4.78;;;3.45;;
78672;SDS011;67988;60.086;30.354;2023-08-08T04:06:44;6.20;;;3.35;;
78672;SDS011;67988;60.086;30.354;2023-08-08T04:09:11;14.63;;;3.83;;
78672;SDS011;67988;60.086;30.354;2023-08-08T04:11:38;5.80;;;3.38;;
78672;SDS011;67988;60.086;30.354;2023-08-08T04:14:05;7.15;;;3.17;;
78672;SDS011;67988;60.086;30.354;2023-08-08T04:16:32;5.22;;;2.80;;
78672;SDS011;67988;60.086;30.354;2023-08-08T04:19:01;8.40;;;3.38;;
78672;SDS011;67988;60.086;30.354;2023-08-08T04:21:29;5.10;;;3.17;;
78672;SDS011;67988;60.086;30.354;2023-08-08T04:23:57;6.70;;;3.42;;
78672;SDS011;67988;60.086;30.354;2023-08-08T04:26:25;5.70;;;3.50;;
78672;SDS011;67988;60.086;30.354;2023-08-08T04:28:52;3.88;;;3.13;;
78672;SDS011;67988;60.086;30.354;2023-08-08T04:31:19;11.23;;;4.40;;
78672;SDS011;67988;60.086;30.354;2023-08-08T04:33:49;5.97;;;3.38;;
78672;SDS011;67988;60.086;30.354;2023-08-08T04:36:18;4.95;;;2.90;;
78672;SDS011;67988;60.086;30.354;2023-08-08T04:38:45;5.97;;;3.63;;
78672;SDS011;67988;60.086;30.354;2023-08-08T04:41:12;4.07;;;3.42;;
78672;SDS011;67988;60.086;30.354;2023-08-08T04:43:39;4.65;;;3.05;;
78672;SDS011;67988;60.086;30.354;2023-08-08T04:46:06;9.48;;;3.78;;
78672;SDS011;67988;60.086;30.354;2023-08-08T04:48:35;7.20;;;3.15;;
78672;SDS011;67988;60.086;30.354;2023-08-08T04:51:03;7.18;;;3.80;;
78672;SDS011;67988;60.086;30.354;2023-08-08T04:53:33;5.75;;;3.00;;
78672;SDS011;67988;60.086;30.354;2023-08-08T04:56:00;5.13;;;2.95;;
78672;SDS011;67988;60.086;30.354;2023-08-08T04:58:27;3.88;;;3.03;;
78672;SDS011;67988;60.086;30.354;2023-08-08T05:00:54;4.65;;;3.63;;
78672;SDS011;67988;60.086;30.354;2023-08-08T05:03:21;8.23;;;4.00;;
78672;SDS011;67988;60.086;30.354;2023-08-08T05:05:48;7.18;;;2.95;;
78672;SDS011;67988;60.086;30.354;2023-08-08T05:08:16;6.20;;;3.67;;
78672;SDS011;67988;60.086;30.354;2023-08-08T05:10:45;6.80;;;3.10;;
78672;SDS011;67988;60.086;30.354;2023-08-08T05:13:12;8.45;;;3.72;;
78672;SDS011;67988;60.086;30.354;2023-08-08T05:15:39;5.90;;;3.17;;
78672;SDS011;67988;60.086;30.354;2023-08-08T05:18:06;7.32;;;3.60;;
78672;SDS011;67988;60.086;30.354;2023-08-08T05:20:33;6.57;;;3.45;;
78672;SDS011;67988;60.086;30.354;2023-08-08T05:23:01;8.40;;;3.67;;
78672;SDS011;67988;60.086;30.354;2023-08-08T05:25:28;13.07;;;3.88;;
78672;SDS011;67988;60.086;30.354;2023-08-08T05:27:56;9.55;;;4.22;;
78672;SDS011;67988;60.086;30.354;2023-08-08T14:44:04;3.15;;;0.15;;
78672;SDS011;67988;60.086;30.354;2023-08-08T14:46:31;8.15;;;1.05;;
78672;SDS011;67988;60.086;30.354;2023-08-08T14:48:59;4.03;;;0.60;;
78672;SDS011;67988;60.086;30.354;2023-08-08T14:53:53;1.77;;;0.13;;
78672;SDS011;67988;60.086;30.354;2023-08-08T14:56:20;2.63;;;0.25;;
78672;SDS011;67988;60.086;30.354;2023-08-08T14:58:47;1.63;;;0.55;;
78672;SDS011;67988;60.086;30.354;2023-08-08T15:03:43;5.60;;;0.47;;
78672;SDS011;67988;60.086;30.354;2023-08-08T15:06:10;7.00;;;0.85;;
78672;SDS011;67988;60.086;30.354;2023-08-08T15:11:04;13.23;;;1.60;;
78672;SDS011;67988;60.086;30.354;2023-08-08T15:13:32;4.55;;;0.57;;
78672;SDS011;67988;60.086;30.354;2023-08-08T15:18:28;4.53;;;0.40;;
78672;SDS011;67988;60.086;30.354;2023-08-08T15:20:55;3.35;;;0.30;;
78672;SDS011;67988;60.086;30.354;2023-08-08T15:25:49;5.70;;;0.77;;
78672;SDS011;67988;60.086;30.354;2023-08-08T15:28:16;8.05;;;0.98;;
78672;SDS011;67988;60.086;30.354;2023-08-08T15:30:43;12.88;;;1.15;;
78672;SDS011;67988;60.086;30.354;2023-08-08T15:33:10;8.23;;;1.17;;
78672;SDS011;67988;60.086;30.354;2023-08-08T15:35:39;31.65;;;3.80;;
78672;SDS011;67988;60.086;30.354;2023-08-08T15:38:06;42.13;;;4.00;;
78672;SDS011;67988;60.086;30.354;2023-08-08T15:43:00;23.05;;;2.35;;
78672;SDS011;67988;60.086;30.354;2023-08-08T15:45:27;3.05;;;0.22;;
78672;SDS011;67988;60.086;30.354;2023-08-08T15:47:55;2.78;;;0.52;;
78672;SDS011;67988;60.086;30.354;2023-08-08T15:50:22;1.65;;;0.20;;
78672;SDS011;67988;60.086;30.354;2023-08-08T15:52:50;2.38;;;0.40;;
78672;SDS011;67988;60.086;30.354;2023-08-08T15:55:21;1.35;;;0.30;;
78672;SDS011;67988;60.086;30.354;2023-08-08T15:57:48;4.32;;;0.68;;
78672;SDS011;67988;60.086;30.354;2023-08-08T16:00:15;3.53;;;0.13;;
78672;SDS011;67988;60.086;30.354;2023-08-08T16:02:44;0.80;;;0.00;;
78672;SDS011;67988;60.086;30.354;2023-08-08T16:07:38;3.65;;;0.20;;
78672;SDS011;67988;60.086;30.354;2023-08-08T16:12:34;2.17;;;0.20;;
78672;SDS011;67988;60.086;30.354;2023-08-08T16:17:30;3.30;;;0.63;;
78672;SDS011;67988;60.086;30.354;2023-08-08T16:19:57;4.80;;;0.30;;
78672;SDS011;67988;60.086;30.354;2023-08-08T16:22:25;2.35;;;0.35;;
78672;SDS011;67988;60.086;30.354;2023-08-08T16:24:53;7.38;;;0.38;;
78672;SDS011;67988;60.086;30.354;2023-08-08T16:27:21;1.85;;;0.22;;
78672;SDS011;67988;60.086;30.354;2023-08-08T16:29:48;8.95;;;0.30;;
78672;SDS011;67988;60.086;30.354;2023-08-08T16:34:42;6.53;;;0.60;;
78672;SDS011;67988;60.086;30.354;2023-08-08T16:37:11;1.30;;;0.20;;
78672;SDS011;67988;60.086;30.354;2023-08-08T16:39:38;0.70;;;0.13;;
78672;SDS011;67988;60.086;30.354;2023-08-08T16:42:05;1.42;;;1.33;;
78672;SDS011;67988;60.086;30.354;2023-08-08T16:44:34;1.17;;;0.20;;
78672;SDS011;67988;60.086;30.354;2023-08-08T16:47:01;3.85;;;0.75;;
78672;SDS011;67988;60.086;30.354;2023-08-08T16:49:29;2.10;;;1.10;;
78672;SDS011;67988;60.086;30.354;2023-08-08T16:51:57;2.08;;;0.20;;
78672;SDS011;67988;60.086;30.354;2023-08-08T16:54:24;2.85;;;0.30;;
78672;SDS011;67988;60.086;30.354;2023-08-08T16:59:19;2.28;;;0.52;;
78672;SDS011;67988;60.086;30.354;2023-08-08T17:01:47;2.70;;;1.35;;
78672;SDS011;67988;60.086;30.354;2023-08-08T17:04:15;5.35;;;0.60;;
78672;SDS011;67988;60.086;30.354;2023-08-08T17:09:09;2.10;;;0.32;;
78672;SDS011;67988;60.086;30.354;2023-08-08T17:11:37;4.80;;;0.30;;
78672;SDS011;67988;60.086;30.354;2023-08-08T17:14:05;2.20;;;0.10;;
78672;SDS011;67988;60.086;30.354;2023-08-08T17:19:00;9.45;;;0.40;;
78672;SDS011;67988;60.086;30.354;2023-08-08T17:21:29;3.47;;;0.52;;
78672;SDS011;67988;60.086;30.354;2023-08-08T17:23:56;0.85;;;0.20;;
78672;SDS011;67988;60.086;30.354;2023-08-08T17:26:23;4.63;;;0.65;;
78672;SDS011;67988;60.086;30.354;2023-08-08T17:28:50;1.75;;;0.45;;
78672;SDS011;67988;60.086;30.354;2023-08-08T17:31:18;4.93;;;0.47;;
78672;SDS011;67988;60.086;30.354;2023-08-08T17:33:45;2.60;;;0.68;;
78672;SDS011;67988;60.086;30.354;2023-08-08T17:36:14;1.10;;;0.40;;
78672;SDS011;67988;60.086;30.354;2023-08-08T17:38:41;3.05;;;0.20;;
78672;SDS011;67988;60.086;30.354;2023-08-08T17:41:08;4.82;;;2.03;;
78672;SDS011;67988;60.086;30.354;2023-08-08T17:43:37;4.70;;;0.40;;
78672;SDS011;67988;60.086;30.354;2023-08-08T17:46:04;1.33;;;0.40;;
78672;SDS011;67988;60.086;30.354;2023-08-08T17:48:31;2.97;;;0.55;;
78672;SDS011;67988;60.086;30.354;2023-08-08T17:50:58;1.90;;;0.65;;
78672;SDS011;67988;60.086;30.354;2023-08-08T17:53:29;2.65;;;0.20;;
78672;SDS011;67988;60.086;30.354;2023-08-08T17:55:56;0.90;;;0.30;;
78672;SDS011;67988;60.086;30.354;2023-08-08T17:58:23;2.28;;;0.28;;
78672;SDS011;67988;60.086;30.354;2023-08-08T18:00:50;2.15;;;0.13;;
78672;SDS011;67988;60.086;30.354;2023-08-08T18:03:18;0.80;;;0.22;;
78672;SDS011;67988;60.086;30.354;2023-08-08T18:05:45;4.50;;;0.47;;
78672;SDS011;67988;60.086;30.354;2023-08-08T18:10:42;2.63;;;1.20;;
78672;SDS011;67988;60.086;30.354;2023-08-08T18:13:10;2.78;;;1.70;;
78672;SDS011;67988;60.086;30.354;2023-08-08T18:15:37;1.25;;;0.30;;
78672;SDS011;67988;60.086;30.354;2023-08-08T18:18:04;3.60;;;0.80;;
78672;SDS011;67988;60.086;30.354;2023-08-08T18:20:32;3.83;;;0.50;;
78672;SDS011;67988;60.086;30.354;2023-08-08T18:22:59;0.90;;;0.30;;
78672;SDS011;67988;60.086;30.354;2023-08-08T18:27:55;2.53;;;0.22;;
78672;SDS011;67988;60.086;30.354;2023-08-08T18:30:22;6.70;;;0.55;;
78672;SDS011;67988;60.086;30.354;2023-08-08T18:32:50;1.58;;;0.55;;
78672;SDS011;67988;60.086;30.354;2023-08-08T18:35:17;0.98;;;0.20;;
78672;SDS011;67988;60.086;30.354;2023-08-08T18:37:47;0.55;;;0.10;;
78672;SDS011;67988;60.086;30.354;2023-08-08T18:40:14;1.80;;;0.17;;
78672;SDS011;67988;60.086;30.354;2023-08-08T18:42:46;0.88;;;0.30;;
78672;SDS011;67988;60.086;30.354;2023-08-08T18:45:15;1.33;;;0.30;;
78672;SDS011;67988;60.086;30.354;2023-08-08T18:47:42;4.88;;;1.30;;
78672;SDS011;67988;60.086;30.354;2023-08-08T18:50:10;5.50;;;0.30;;
78672;SDS011;67988;60.086;30.354;2023-08-08T18:55:04;0.85;;;0.20;;
78672;SDS011;67988;60.086;30.354;2023-08-08T18:59:59;3.90;;;0.43;;
78672;SDS011;67988;60.086;30.354;2023-08-08T19:02:30;2.75;;;0.40;;
78672;SDS011;67988;60.086;30.354;2023-08-08T19:04:57;2.08;;;0.13;;
78672;SDS011;67988;60.086;30.354;2023-08-08T19:07:24;2.67;;;0.38;;
78672;SDS011;67988;60.086;30.354;2023-08-08T19:12:19;4.53;;;0.45;;
78672;SDS011;67988;60.086;30.354;2023-08-08T19:14:47;3.75;;;0.65;;
78672;SDS011;67988;60.086;30.354;2023-08-08T19:17:14;2.55;;;0.32;;
78672;SDS011;67988;60.086;30.354;2023-08-08T19:19:42;3.10;;;0.20;;
78672;SDS011;67988;60.086;30.354;2023-08-08T19:22:10;4.43;;;0.80;;
78672;SDS011;67988;60.086;30.354;2023-08-08T19:24:37;3.35;;;2.17;;
78672;SDS011;67988;60.086;30.354;2023-08-08T19:27:04;4.65;;;1.02;;
78672;SDS011;67988;60.086;30.354;2023-08-08T19:29:32;4.85;;;1.63;;
78672;SDS011;67988;60.086;30.354;2023-08-08T19:31:59;4.32;;;2.03;;
78672;SDS011;67988;60.086;30.354;2023-08-08T19:34:26;7.63;;;3.13;;
78672;SDS011;67988;60.086;30.354;2023-08-08T19:36:55;5.22;;;3.30;;
78672;SDS011;67988;60.086;30.354;2023-08-08T19:39:22;9.77;;;2.95;;
78672;SDS011;67988;60.086;30.354;2023-08-08T19:41:49;10.20;;;5.00;;
78672;SDS011;67988;60.086;30.354;2023-08-08T19:44:16;7.68;;;1.70;;
78672;SDS011;67988;60.086;30.354;2023-08-08T19:46:43;4.32;;;1.73;;
78672;SDS011;67988;60.086;30.354;2023-08-08T19:49:10;3.80;;;1.33;;
78672;SDS011;67988;60.086;30.354;2023-08-08T19:51:38;3.90;;;0.90;;
78672;SDS011;67988;60.086;30.354;2023-08-08T19:54:06;3.72;;;2.08;;
78672;SDS011;67988;60.086;30.354;2023-08-08T19:56:37;1.92;;;1.25;;
78672;SDS011;67988;60.086;30.354;2023-08-08T19:59:04;5.10;;;2.22;;
78672;SDS011;67988;60.086;30.354;2023-08-08T20:01:31;3.60;;;1.52;;
78672;SDS011;67988;60.086;30.354;2023-08-08T20:04:00;2.90;;;2.58;;
78672;SDS011;67988;60.086;30.354;2023-08-08T20:06:28;3.42;;;0.90;;
78672;SDS011;67988;60.086;30.354;2023-08-08T20:08:55;4.15;;;1.63;;
78672;SDS011;67988;60.086;30.354;2023-08-08T20:11:25;6.38;;;1.67;;
78672;SDS011;67988;60.086;30.354;2023-08-08T20:13:52;2.45;;;1.13;;
78672;SDS011;67988;60.086;30.354;2023-08-08T20:16:19;6.57;;;2.33;;
78672;SDS011;67988;60.086;30.354;2023-08-08T20:18:49;5.97;;;1.80;;
78672;SDS011;67988;60.086;30.354;2023-08-08T20:21:16;3.40;;;2.25;;
78672;SDS011;67988;60.086;30.354;2023-08-08T20:23:43;3.85;;;2.30;;
78672;SDS011;67988;60.086;30.354;2023-08-08T20:28:39;3.05;;;1.70;;
78672;SDS011;67988;60.086;30.354;2023-08-08T20:31:07;5.20;;;2.40;;
78672;SDS011;67988;60.086;30.354;2023-08-08T20:33:34;2.05;;;0.63;;
78672;SDS011;67988;60.086;30.354;2023-08-08T20:36:01;6.22;;;1.15;;
78672;SDS011;67988;60.086;30.354;2023-08-08T20:38:29;3.95;;;1.00;;
78672;SDS011;67988;60.086;30.354;2023-08-08T20:40:57;6.07;;;1.45;;
78672;SDS011;67988;60.086;30.354;2023-08-08T20:43:24;4.95;;;1.67;;
78672;SDS011;67988;60.086;30.354;2023-08-08T20:45:53;3.60;;;2.25;;
78672;SDS011;67988;60.086;30.354;2023-08-08T20:48:20;5.80;;;2.25;;
78672;SDS011;67988;60.086;30.354;2023-08-08T20:50:47;1.85;;;0.82;;
78672;SDS011;67988;60.086;30.354;2023-08-08T20:53:14;2.15;;;1.13;;
78672;SDS011;67988;60.086;30.354;2023-08-08T20:55:42;2.15;;;0.93;;
78672;SDS011;67988;60.086;30.354;2023-08-08T20:58:09;5.80;;;2.47;;
78672;SDS011;67988;60.086;30.354;2023-08-08T21:00:36;5.32;;;2.20;;
78672;SDS011;67988;60.086;30.354;2023-08-08T21:03:05;5.75;;;3.58;;
78672;SDS011;67988;60.086;30.354;2023-08-08T21:05:33;5.13;;;2.53;;
78672;SDS011;67988;60.086;30.354;2023-08-08T21:08:00;10.90;;;7.40;;
78672;SDS011;67988;60.086;30.354;2023-08-08T21:10:28;8.65;;;6.15;;
78672;SDS011;67988;60.086;30.354;2023-08-08T21:12:55;9.88;;;6.15;;
78672;SDS011;67988;60.086;30.354;2023-08-08T21:15:22;8.45;;;3.92;;
78672;SDS011;67988;60.086;30.354;2023-08-08T21:20:18;3.88;;;1.33;;
78672;SDS011;67988;60.086;30.354;2023-08-08T21:22:45;4.72;;;0.70;;
78672;SDS011;67988;60.086;30.354;2023-08-08T21:25:12;3.13;;;0.82;;
78672;SDS011;67988;60.086;30.354;2023-08-08T21:27:40;3.33;;;1.15;;
78672;SDS011;67988;60.086;30.354;2023-08-08T21:32:55;4.97;;;1.48;;
78672;SDS011;67988;60.086;30.354;2023-08-08T21:42:03;2.40;;;0.82;;
78672;SDS011;67988;60.086;30.354;2023-08-08T21:44:31;2.78;;;1.27;;
78672;SDS011;67988;60.086;30.354;2023-08-08T21:49:25;2.30;;;0.73;;
78672;SDS011;67988;60.086;30.354;2023-08-08T21:51:54;4.15;;;0.80;;
78672;SDS011;67988;60.086;30.354;2023-08-08T21:54:21;3.85;;;1.30;;
78672;SDS011;67988;60.086;30.354;2023-08-08T22:01:00;9.32;;;6.18;;
78672;SDS011;67988;60.086;30.354;2023-08-08T22:03:27;6.82;;;4.65;;
78672;SDS011;67988;60.086;30.354;2023-08-08T22:05:55;3.42;;;1.50;;
78672;SDS011;67988;60.086;30.354;2023-08-08T22:08:23;13.95;;;5.63;;
78672;SDS011;67988;60.086;30.354;2023-08-08T22:10:50;3.67;;;1.48;;
78672;SDS011;67988;60.086;30.354;2023-08-08T22:13:18;1.98;;;1.10;;
78672;SDS011;67988;60.086;30.354;2023-08-08T22:15:46;3.20;;;0.68;;
78672;SDS011;67988;60.086;30.354;2023-08-08T22:18:14;2.30;;;0.85;;
78672;SDS011;67988;60.086;30.354;2023-08-08T22:20:43;3.42;;;0.73;;
78672;SDS011;67988;60.086;30.354;2023-08-08T22:23:11;3.58;;;0.70;;
78672;SDS011;67988;60.086;30.354;2023-08-08T22:25:40;3.42;;;1.20;;
78672;SDS011;67988;60.086;30.354;2023-08-08T22:32:27;1.80;;;0.80;;
78672;SDS011;67988;60.086;30.354;2023-08-08T22:34:54;2.00;;;0.88;;
78672;SDS011;67988;60.086;30.354;2023-08-08T22:37:21;2.30;;;0.80;;
78672;SDS011;67988;60.086;30.354;2023-08-08T22:39:49;2.85;;;1.00;;
78672;SDS011;67988;60.086;30.354;2023-08-08T22:42:17;2.25;;;1.38;;
78672;SDS011;67988;60.086;30.354;2023-08-08T22:44:44;1.95;;;1.15;;
78672;SDS011;67988;60.086;30.354;2023-08-08T22:47:11;2.85;;;1.15;;
78672;SDS011;67988;60.086;30.354;2023-08-08T22:49:39;2.80;;;1.20;;
78672;SDS011;67988;60.086;30.354;2023-08-08T22:52:06;4.30;;;2.22;;
78672;SDS011;67988;60.086;30.354;2023-08-08T22:54:33;3.92;;;2.35;;
78672;SDS011;67988;60.086;30.354;2023-08-08T22:57:00;2.42;;;1.27;;
78672;SDS011;67988;60.086;30.354;2023-08-08T22:59:29;3.70;;;1.60;;
78672;SDS011;67988;60.086;30.354;2023-08-08T23:01:56;3.40;;;1.48;;
78672;SDS011;67988;60.086;30.354;2023-08-08T23:04:25;2.53;;;1.65;;
78672;SDS011;67988;60.086;30.354;2023-08-08T23:06:52;3.80;;;1.80;;
78672;SDS011;67988;60.086;30.354;2023-08-08T23:09:20;6.70;;;2.00;;
78672;SDS011;67988;60.086;30.354;2023-08-08T23:11:47;5.93;;;2.38;;
78672;SDS011;67988;60.086;30.354;2023-08-08T23:14:14;2.53;;;1.33;;
78672;SDS011;67988;60.086;30.354;2023-08-08T23:16:42;3.50;;;1.10;;
78672;SDS011;67988;60.086;30.354;2023-08-08T23:19:10;1.92;;;0.90;;
78672;SDS011;67988;60.086;30.354;2023-08-08T23:21:37;2.80;;;1.10;;
78672;SDS011;67988;60.086;30.354;2023-08-08T23:24:04;3.55;;;1.17;;
78672;SDS011;67988;60.086;30.354;2023-08-08T23:26:32;5.28;;;2.30;;
78672;SDS011;67988;60.086;30.354;2023-08-08T23:29:01;3.83;;;1.27;;
78672;SDS011;67988;60.086;30.354;2023-08-08T23:31:29;2.45;;;1.20;;
78672;SDS011;67988;60.086;30.354;2023-08-08T23:33:59;2.95;;;1.45;;
78672;SDS011;67988;60.086;30.354;2023-08-08T23:36:27;6.60;;;1.95;;
78672;SDS011;67988;60.086;30.354;2023-08-08T23:38:54;5.30;;;1.20;;
78672;SDS011;67988;60.086;30.354;2023-08-08T23:41:21;3.50;;;1.20;;
78672;SDS011;67988;60.086;30.354;2023-08-08T23:43:49;3.65;;;1.73;;
78672;SDS011;67988;60.086;30.354;2023-08-08T23:46:16;3.80;;;1.35;;
78672;SDS011;67988;60.086;30.354;2023-08-08T23:48:43;2.15;;;1.10;;
78672;SDS011;67988;60.086;30.354;2023-08-08T23:51:13;3.20;;;1.65;;
78672;SDS011;67988;60.086;30.354;2023-08-08T23:53:41;4.50;;;1.95;;
78672;SDS011;67988;60.086;30.354;2023-08-08T23:56:08;4.88;;;1.00;;
78672;SDS011;67988;60.086;30.354;2023-08-08T23:58:35;5.60;;;1.30;;
